sensor_id;sensor_type;location;lat;lon;timestamp;P1;durP1;ratioP1;P2;durP2;ratioP2
13267;SDS011;6702;47.068;15.458;2022-09-09T00:01:28;2.23;;;1.30;;
13267;SDS011;6702;47.068;15.458;2022-09-09T00:04:40;1.73;;;1.00;;
13267;SDS011;6702;47.068;15.458;2022-09-09T00:07:47;2.33;;;1.10;;
13267;SDS011;6702;47.068;15.458;2022-09-09T00:10:54;1.10;;;0.90;;
13267;SDS011;6702;47.068;15.458;2022-09-09T00:14:03;1.87;;;0.67;;
13267;SDS011;6702;47.068;15.458;2022-09-09T00:17:17;1.70;;;0.90;;
13267;SDS011;6702;47.068;15.458;2022-09-09T00:20:33;2.83;;;0.90;;
13267;SDS011;6702;47.068;15.458;2022-09-09T00:23:44;3.53;;;1.10;;
13267;SDS011;6702;47.068;15.458;2022-09-09T00:26:51;1.23;;;1.03;;
13267;SDS011;6702;47.068;15.458;2022-09-09T00:30:00;6.03;;;0.90;;
13267;SDS011;6702;47.068;15.458;2022-09-09T00:33:16;6.50;;;1.70;;
13267;SDS011;6702;47.068;15.458;2022-09-09T00:36:23;1.03;;;0.93;;
13267;SDS011;6702;47.068;15.458;2022-09-09T00:39:31;7.50;;;1.20;;
13267;SDS011;6702;47.068;15.458;2022-09-09T00:42:40;2.20;;;0.90;;
13267;SDS011;6702;47.068;15.458;2022-09-09T00:49:33;2.53;;;1.17;;
13267;SDS011;6702;47.068;15.458;2022-09-09T00:52:45;7.50;;;1.17;;
13267;SDS011;6702;47.068;15.458;2022-09-09T00:55:59;1.40;;;1.00;;
13267;SDS011;6702;47.068;15.458;2022-09-09T00:59:11;2.57;;;1.40;;
13267;SDS011;6702;47.068;15.458;2022-09-09T01:02:29;3.57;;;1.03;;
13267;SDS011;6702;47.068;15.458;2022-09-09T01:05:39;1.90;;;1.07;;
13267;SDS011;6702;47.068;15.458;2022-09-09T01:08:58;2.77;;;1.20;;
13267;SDS011;6702;47.068;15.458;2022-09-09T01:12:16;3.90;;;1.40;;
13267;SDS011;6702;47.068;15.458;2022-09-09T01:15:21;4.50;;;1.00;;
13267;SDS011;6702;47.068;15.458;2022-09-09T01:18:29;1.43;;;1.20;;
13267;SDS011;6702;47.068;15.458;2022-09-09T01:21:38;2.13;;;1.10;;
13267;SDS011;6702;47.068;15.458;2022-09-09T01:24:49;1.13;;;1.00;;
13267;SDS011;6702;47.068;15.458;2022-09-09T01:28:16;2.87;;;1.00;;
13267;SDS011;6702;47.068;15.458;2022-09-09T01:31:26;2.57;;;1.03;;
13267;SDS011;6702;47.068;15.458;2022-09-09T01:34:33;1.37;;;1.27;;
13267;SDS011;6702;47.068;15.458;2022-09-09T01:37:41;1.43;;;1.03;;
13267;SDS011;6702;47.068;15.458;2022-09-09T01:40:44;2.17;;;1.00;;
13267;SDS011;6702;47.068;15.458;2022-09-09T01:43:49;4.30;;;1.20;;
13267;SDS011;6702;47.068;15.458;2022-09-09T01:46:53;1.20;;;0.73;;
13267;SDS011;6702;47.068;15.458;2022-09-09T01:49:56;1.87;;;1.10;;
13267;SDS011;6702;47.068;15.458;2022-09-09T01:52:59;1.90;;;1.10;;
13267;SDS011;6702;47.068;15.458;2022-09-09T01:56:07;2.27;;;1.33;;
13267;SDS011;6702;47.068;15.458;2022-09-09T01:59:27;4.70;;;1.43;;
13267;SDS011;6702;47.068;15.458;2022-09-09T02:02:39;5.60;;;1.80;;
13267;SDS011;6702;47.068;15.458;2022-09-09T02:05:50;3.40;;;1.17;;
13267;SDS011;6702;47.068;15.458;2022-09-09T02:08:58;3.20;;;1.13;;
13267;SDS011;6702;47.068;15.458;2022-09-09T02:12:05;2.80;;;1.43;;
13267;SDS011;6702;47.068;15.458;2022-09-09T02:15:16;2.10;;;1.37;;
13267;SDS011;6702;47.068;15.458;2022-09-09T02:18:24;1.40;;;1.30;;
13267;SDS011;6702;47.068;15.458;2022-09-09T02:21:30;2.83;;;1.57;;
13267;SDS011;6702;47.068;15.458;2022-09-09T02:24:37;3.27;;;1.43;;
13267;SDS011;6702;47.068;15.458;2022-09-09T02:27:41;3.00;;;1.63;;
13267;SDS011;6702;47.068;15.458;2022-09-09T02:30:49;2.17;;;1.40;;
13267;SDS011;6702;47.068;15.458;2022-09-09T02:33:57;5.70;;;1.47;;
13267;SDS011;6702;47.068;15.458;2022-09-09T02:37:02;3.13;;;1.90;;
13267;SDS011;6702;47.068;15.458;2022-09-09T02:40:09;2.63;;;1.87;;
13267;SDS011;6702;47.068;15.458;2022-09-09T02:43:14;3.33;;;1.50;;
13267;SDS011;6702;47.068;15.458;2022-09-09T02:46:24;2.43;;;1.50;;
13267;SDS011;6702;47.068;15.458;2022-09-09T02:49:42;2.20;;;1.73;;
13267;SDS011;6702;47.068;15.458;2022-09-09T02:53:01;2.70;;;1.40;;
13267;SDS011;6702;47.068;15.458;2022-09-09T02:56:13;2.50;;;1.30;;
13267;SDS011;6702;47.068;15.458;2022-09-09T02:59:18;2.87;;;1.60;;
13267;SDS011;6702;47.068;15.458;2022-09-09T03:02:23;1.90;;;1.43;;
13267;SDS011;6702;47.068;15.458;2022-09-09T03:05:27;2.83;;;1.20;;
13267;SDS011;6702;47.068;15.458;2022-09-09T03:08:30;2.67;;;1.20;;
13267;SDS011;6702;47.068;15.458;2022-09-09T03:11:33;2.50;;;1.80;;
13267;SDS011;6702;47.068;15.458;2022-09-09T03:14:36;2.13;;;1.50;;
13267;SDS011;6702;47.068;15.458;2022-09-09T03:17:41;1.60;;;1.50;;
13267;SDS011;6702;47.068;15.458;2022-09-09T03:20:45;1.40;;;1.10;;
13267;SDS011;6702;47.068;15.458;2022-09-09T03:23:49;2.50;;;1.50;;
13267;SDS011;6702;47.068;15.458;2022-09-09T03:26:52;4.87;;;1.83;;
13267;SDS011;6702;47.068;15.458;2022-09-09T03:29:57;1.70;;;1.43;;
13267;SDS011;6702;47.068;15.458;2022-09-09T03:33:01;1.77;;;1.40;;
13267;SDS011;6702;47.068;15.458;2022-09-09T03:36:05;1.50;;;1.40;;
13267;SDS011;6702;47.068;15.458;2022-09-09T03:39:08;3.47;;;1.10;;
13267;SDS011;6702;47.068;15.458;2022-09-09T03:42:12;1.57;;;0.80;;
13267;SDS011;6702;47.068;15.458;2022-09-09T03:45:20;2.47;;;1.17;;
13267;SDS011;6702;47.068;15.458;2022-09-09T03:48:24;4.53;;;1.20;;
13267;SDS011;6702;47.068;15.458;2022-09-09T03:51:29;0.97;;;0.90;;
13267;SDS011;6702;47.068;15.458;2022-09-09T03:54:32;1.93;;;1.27;;
13267;SDS011;6702;47.068;15.458;2022-09-09T03:57:36;1.77;;;1.10;;
13267;SDS011;6702;47.068;15.458;2022-09-09T04:00:40;2.10;;;1.60;;
13267;SDS011;6702;47.068;15.458;2022-09-09T04:03:47;4.23;;;1.80;;
13267;SDS011;6702;47.068;15.458;2022-09-09T04:06:51;1.70;;;1.60;;
13267;SDS011;6702;47.068;15.458;2022-09-09T04:09:54;2.40;;;1.70;;
13267;SDS011;6702;47.068;15.458;2022-09-09T04:12:58;1.87;;;1.77;;
13267;SDS011;6702;47.068;15.458;2022-09-09T04:16:02;4.20;;;2.40;;
13267;SDS011;6702;47.068;15.458;2022-09-09T04:19:07;2.47;;;2.27;;
13267;SDS011;6702;47.068;15.458;2022-09-09T04:22:10;4.80;;;2.27;;
13267;SDS011;6702;47.068;15.458;2022-09-09T04:25:13;2.53;;;2.20;;
13267;SDS011;6702;47.068;15.458;2022-09-09T04:28:17;2.80;;;2.43;;
13267;SDS011;6702;47.068;15.458;2022-09-09T04:31:22;4.57;;;2.90;;
13267;SDS011;6702;47.068;15.458;2022-09-09T04:34:27;3.70;;;2.67;;
13267;SDS011;6702;47.068;15.458;2022-09-09T04:37:31;3.97;;;2.10;;
13267;SDS011;6702;47.068;15.458;2022-09-09T04:40:34;2.07;;;1.97;;
13267;SDS011;6702;47.068;15.458;2022-09-09T04:43:37;5.90;;;2.40;;
13267;SDS011;6702;47.068;15.458;2022-09-09T04:46:40;3.50;;;2.00;;
13267;SDS011;6702;47.068;15.458;2022-09-09T04:49:45;2.50;;;2.30;;
13267;SDS011;6702;47.068;15.458;2022-09-09T04:52:48;2.33;;;2.13;;
13267;SDS011;6702;47.068;15.458;2022-09-09T04:55:51;2.27;;;1.83;;
13267;SDS011;6702;47.068;15.458;2022-09-09T04:58:55;2.30;;;2.10;;
13267;SDS011;6702;47.068;15.458;2022-09-09T05:01:58;2.93;;;1.87;;
13267;SDS011;6702;47.068;15.458;2022-09-09T05:05:04;1.60;;;1.43;;
13267;SDS011;6702;47.068;15.458;2022-09-09T05:08:07;2.33;;;1.60;;
13267;SDS011;6702;47.068;15.458;2022-09-09T05:11:18;1.60;;;1.50;;
13267;SDS011;6702;47.068;15.458;2022-09-09T05:14:23;4.13;;;1.53;;
13267;SDS011;6702;47.068;15.458;2022-09-09T05:17:26;1.93;;;1.63;;
13267;SDS011;6702;47.068;15.458;2022-09-09T05:20:30;2.10;;;2.00;;
13267;SDS011;6702;47.068;15.458;2022-09-09T05:23:34;2.23;;;2.03;;
13267;SDS011;6702;47.068;15.458;2022-09-09T05:26:37;10.50;;;2.30;;
13267;SDS011;6702;47.068;15.458;2022-09-09T05:29:40;1.97;;;1.80;;
13267;SDS011;6702;47.068;15.458;2022-09-09T05:32:45;4.83;;;2.33;;
13267;SDS011;6702;47.068;15.458;2022-09-09T05:35:55;2.43;;;1.80;;
13267;SDS011;6702;47.068;15.458;2022-09-09T05:38:59;2.70;;;2.10;;
13267;SDS011;6702;47.068;15.458;2022-09-09T05:42:02;3.47;;;1.70;;
13267;SDS011;6702;47.068;15.458;2022-09-09T05:45:06;2.40;;;2.20;;
13267;SDS011;6702;47.068;15.458;2022-09-09T05:48:10;2.60;;;2.40;;
13267;SDS011;6702;47.068;15.458;2022-09-09T05:51:15;2.47;;;2.27;;
13267;SDS011;6702;47.068;15.458;2022-09-09T05:54:20;2.33;;;2.23;;
13267;SDS011;6702;47.068;15.458;2022-09-09T05:57:23;2.83;;;2.13;;
13267;SDS011;6702;47.068;15.458;2022-09-09T06:00:26;2.63;;;2.10;;
13267;SDS011;6702;47.068;15.458;2022-09-09T06:03:33;2.90;;;2.43;;
13267;SDS011;6702;47.068;15.458;2022-09-09T06:06:38;3.97;;;2.80;;
13267;SDS011;6702;47.068;15.458;2022-09-09T06:09:43;10.30;;;2.87;;
13267;SDS011;6702;47.068;15.458;2022-09-09T06:12:46;3.33;;;3.00;;
13267;SDS011;6702;47.068;15.458;2022-09-09T06:15:49;3.53;;;3.20;;
13267;SDS011;6702;47.068;15.458;2022-09-09T06:18:53;2.77;;;2.57;;
13267;SDS011;6702;47.068;15.458;2022-09-09T06:21:59;2.93;;;2.70;;
13267;SDS011;6702;47.068;15.458;2022-09-09T06:25:02;3.50;;;2.80;;
13267;SDS011;6702;47.068;15.458;2022-09-09T06:28:06;3.43;;;2.80;;
13267;SDS011;6702;47.068;15.458;2022-09-09T06:31:10;2.97;;;2.60;;
13267;SDS011;6702;47.068;15.458;2022-09-09T06:34:14;3.90;;;2.80;;
13267;SDS011;6702;47.068;15.458;2022-09-09T06:37:18;4.67;;;2.77;;
13267;SDS011;6702;47.068;15.458;2022-09-09T06:40:21;2.83;;;2.50;;
13267;SDS011;6702;47.068;15.458;2022-09-09T06:43:25;3.67;;;2.53;;
13267;SDS011;6702;47.068;15.458;2022-09-09T06:46:28;4.83;;;3.20;;
13267;SDS011;6702;47.068;15.458;2022-09-09T06:49:34;7.77;;;4.00;;
13267;SDS011;6702;47.068;15.458;2022-09-09T06:52:38;2.90;;;2.70;;
13267;SDS011;6702;47.068;15.458;2022-09-09T06:55:42;7.27;;;3.60;;
13267;SDS011;6702;47.068;15.458;2022-09-09T06:58:47;3.40;;;3.10;;
13267;SDS011;6702;47.068;15.458;2022-09-09T07:01:51;3.00;;;2.70;;
13267;SDS011;6702;47.068;15.458;2022-09-09T07:04:56;3.50;;;3.20;;
13267;SDS011;6702;47.068;15.458;2022-09-09T07:08:01;3.80;;;2.60;;
13267;SDS011;6702;47.068;15.458;2022-09-09T07:11:05;3.73;;;2.30;;
13267;SDS011;6702;47.068;15.458;2022-09-09T07:14:13;3.13;;;2.83;;
13267;SDS011;6702;47.068;15.458;2022-09-09T07:17:16;3.40;;;3.10;;
13267;SDS011;6702;47.068;15.458;2022-09-09T07:20:19;6.23;;;3.20;;
13267;SDS011;6702;47.068;15.458;2022-09-09T07:23:24;2.70;;;2.50;;
13267;SDS011;6702;47.068;15.458;2022-09-09T07:26:28;3.20;;;2.40;;
13267;SDS011;6702;47.068;15.458;2022-09-09T07:29:32;4.43;;;2.97;;
13267;SDS011;6702;47.068;15.458;2022-09-09T07:32:36;4.07;;;2.37;;
13267;SDS011;6702;47.068;15.458;2022-09-09T07:35:39;3.03;;;2.77;;
13267;SDS011;6702;47.068;15.458;2022-09-09T07:38:45;3.13;;;2.60;;
13267;SDS011;6702;47.068;15.458;2022-09-09T07:41:49;4.10;;;3.67;;
13267;SDS011;6702;47.068;15.458;2022-09-09T07:44:52;4.53;;;3.20;;
13267;SDS011;6702;47.068;15.458;2022-09-09T07:47:56;6.93;;;3.67;;
13267;SDS011;6702;47.068;15.458;2022-09-09T07:51:03;7.13;;;4.30;;
13267;SDS011;6702;47.068;15.458;2022-09-09T07:54:10;10.83;;;3.87;;
13267;SDS011;6702;47.068;15.458;2022-09-09T07:57:15;5.67;;;3.97;;
13267;SDS011;6702;47.068;15.458;2022-09-09T08:00:19;5.40;;;3.77;;
13267;SDS011;6702;47.068;15.458;2022-09-09T08:03:23;4.60;;;4.20;;
13267;SDS011;6702;47.068;15.458;2022-09-09T08:06:27;5.50;;;3.90;;
13267;SDS011;6702;47.068;15.458;2022-09-09T08:09:32;5.40;;;3.93;;
13267;SDS011;6702;47.068;15.458;2022-09-09T08:12:35;3.33;;;3.13;;
13267;SDS011;6702;47.068;15.458;2022-09-09T08:15:38;4.83;;;4.00;;
13267;SDS011;6702;47.068;15.458;2022-09-09T08:18:42;4.63;;;4.23;;
13267;SDS011;6702;47.068;15.458;2022-09-09T08:21:45;4.43;;;4.07;;
13267;SDS011;6702;47.068;15.458;2022-09-09T08:24:51;5.13;;;3.10;;
13267;SDS011;6702;47.068;15.458;2022-09-09T08:27:54;3.63;;;2.80;;
13267;SDS011;6702;47.068;15.458;2022-09-09T08:31:04;2.87;;;2.67;;
13267;SDS011;6702;47.068;15.458;2022-09-09T08:34:08;3.20;;;2.60;;
13267;SDS011;6702;47.068;15.458;2022-09-09T08:37:11;3.67;;;2.87;;
13267;SDS011;6702;47.068;15.458;2022-09-09T08:40:18;5.40;;;3.07;;
13267;SDS011;6702;47.068;15.458;2022-09-09T08:43:24;8.20;;;2.80;;
13267;SDS011;6702;47.068;15.458;2022-09-09T08:46:32;4.07;;;3.07;;
13267;SDS011;6702;47.068;15.458;2022-09-09T08:49:50;6.53;;;3.30;;
13267;SDS011;6702;47.068;15.458;2022-09-09T08:53:04;6.03;;;3.33;;
13267;SDS011;6702;47.068;15.458;2022-09-09T08:56:16;3.90;;;3.60;;
13267;SDS011;6702;47.068;15.458;2022-09-09T08:59:20;3.83;;;3.53;;
13267;SDS011;6702;47.068;15.458;2022-09-09T09:02:25;3.40;;;3.10;;
13267;SDS011;6702;47.068;15.458;2022-09-09T09:05:36;4.10;;;3.70;;
13267;SDS011;6702;47.068;15.458;2022-09-09T09:08:45;3.60;;;3.30;;
13267;SDS011;6702;47.068;15.458;2022-09-09T09:11:56;3.63;;;3.10;;
13267;SDS011;6702;47.068;15.458;2022-09-09T09:15:02;4.97;;;4.40;;
13267;SDS011;6702;47.068;15.458;2022-09-09T09:18:12;6.83;;;5.10;;
13267;SDS011;6702;47.068;15.458;2022-09-09T09:21:18;8.33;;;6.30;;
13267;SDS011;6702;47.068;15.458;2022-09-09T09:24:29;5.87;;;5.40;;
13267;SDS011;6702;47.068;15.458;2022-09-09T09:27:46;5.20;;;2.73;;
13267;SDS011;6702;47.068;15.458;2022-09-09T09:30:57;4.80;;;2.70;;
13267;SDS011;6702;47.068;15.458;2022-09-09T09:34:04;4.10;;;2.83;;
13267;SDS011;6702;47.068;15.458;2022-09-09T09:37:12;5.78;;;2.60;;
13267;SDS011;6702;47.068;15.458;2022-09-09T09:40:21;3.47;;;3.28;;
13267;SDS011;6702;47.068;15.458;2022-09-09T09:43:28;2.92;;;2.72;;
13267;SDS011;6702;47.068;15.458;2022-09-09T09:46:32;5.60;;;3.63;;
13267;SDS011;6702;47.068;15.458;2022-09-09T09:49:35;2.77;;;2.57;;
13267;SDS011;6702;47.068;15.458;2022-09-09T09:52:38;3.93;;;2.33;;
13267;SDS011;6702;47.068;15.458;2022-09-09T09:55:48;4.40;;;2.90;;
13267;SDS011;6702;47.068;15.458;2022-09-09T09:58:57;3.73;;;2.40;;
13267;SDS011;6702;47.068;15.458;2022-09-09T10:02:16;3.60;;;3.00;;
13267;SDS011;6702;47.068;15.458;2022-09-09T10:05:22;3.53;;;2.30;;
13267;SDS011;6702;47.068;15.458;2022-09-09T10:08:28;2.47;;;2.27;;
13267;SDS011;6702;47.068;15.458;2022-09-09T10:11:35;2.83;;;2.50;;
13267;SDS011;6702;47.068;15.458;2022-09-09T10:14:49;2.30;;;2.10;;
13267;SDS011;6702;47.068;15.458;2022-09-09T10:18:03;2.30;;;2.10;;
13267;SDS011;6702;47.068;15.458;2022-09-09T10:21:20;4.20;;;2.90;;
13267;SDS011;6702;47.068;15.458;2022-09-09T10:24:46;2.97;;;2.50;;
13267;SDS011;6702;47.068;15.458;2022-09-09T10:28:11;10.50;;;7.90;;
13267;SDS011;6702;47.068;15.458;2022-09-09T10:31:34;2.90;;;2.57;;
13267;SDS011;6702;47.068;15.458;2022-09-09T10:34:52;2.40;;;2.20;;
13267;SDS011;6702;47.068;15.458;2022-09-09T10:41:33;3.30;;;2.37;;
13267;SDS011;6702;47.068;15.458;2022-09-09T10:44:50;4.80;;;2.00;;
13267;SDS011;6702;47.068;15.458;2022-09-09T10:48:11;3.23;;;2.10;;
13267;SDS011;6702;47.068;15.458;2022-09-09T10:51:33;5.00;;;2.60;;
13267;SDS011;6702;47.068;15.458;2022-09-09T10:54:45;2.20;;;2.00;;
13267;SDS011;6702;47.068;15.458;2022-09-09T10:57:59;5.10;;;3.83;;
13267;SDS011;6702;47.068;15.458;2022-09-09T11:01:07;4.50;;;2.47;;
13267;SDS011;6702;47.068;15.458;2022-09-09T11:04:19;2.47;;;2.10;;
13267;SDS011;6702;47.068;15.458;2022-09-09T11:07:28;3.40;;;2.20;;
13267;SDS011;6702;47.068;15.458;2022-09-09T11:10:37;2.10;;;1.90;;
13267;SDS011;6702;47.068;15.458;2022-09-09T11:13:47;2.40;;;2.20;;
13267;SDS011;6702;47.068;15.458;2022-09-09T11:16:57;1.93;;;1.70;;
13267;SDS011;6702;47.068;15.458;2022-09-09T11:20:06;2.37;;;2.17;;
13267;SDS011;6702;47.068;15.458;2022-09-09T11:23:15;1.50;;;1.40;;
13267;SDS011;6702;47.068;15.458;2022-09-09T11:26:28;4.23;;;2.30;;
13267;SDS011;6702;47.068;15.458;2022-09-09T11:33:50;2.60;;;2.40;;
13267;SDS011;6702;47.068;15.458;2022-09-09T11:37:14;3.00;;;1.97;;
13267;SDS011;6702;47.068;15.458;2022-09-09T11:40:27;4.60;;;2.30;;
13267;SDS011;6702;47.068;15.458;2022-09-09T11:43:33;2.80;;;2.20;;
13267;SDS011;6702;47.068;15.458;2022-09-09T11:46:42;2.90;;;2.13;;
13267;SDS011;6702;47.068;15.458;2022-09-09T11:49:52;3.60;;;2.40;;
13267;SDS011;6702;47.068;15.458;2022-09-09T11:53:16;2.40;;;2.20;;
13267;SDS011;6702;47.068;15.458;2022-09-09T11:56:25;6.07;;;2.63;;
13267;SDS011;6702;47.068;15.458;2022-09-09T11:59:32;2.40;;;2.20;;
13267;SDS011;6702;47.068;15.458;2022-09-09T12:02:36;2.70;;;2.27;;
13267;SDS011;6702;47.068;15.458;2022-09-09T12:05:50;2.80;;;2.60;;
13267;SDS011;6702;47.068;15.458;2022-09-09T12:08:56;2.13;;;1.93;;
13267;SDS011;6702;47.068;15.458;2022-09-09T12:12:25;2.57;;;1.90;;
13267;SDS011;6702;47.068;15.458;2022-09-09T12:15:31;1.97;;;1.70;;
13267;SDS011;6702;47.068;15.458;2022-09-09T12:18:34;2.63;;;2.10;;
13267;SDS011;6702;47.068;15.458;2022-09-09T12:21:42;3.40;;;1.80;;
13267;SDS011;6702;47.068;15.458;2022-09-09T12:24:54;2.23;;;1.70;;
13267;SDS011;6702;47.068;15.458;2022-09-09T12:28:09;1.70;;;1.60;;
13267;SDS011;6702;47.068;15.458;2022-09-09T12:31:19;2.73;;;2.50;;
13267;SDS011;6702;47.068;15.458;2022-09-09T12:34:38;3.10;;;1.90;;
13267;SDS011;6702;47.068;15.458;2022-09-09T12:37:44;3.27;;;1.80;;
13267;SDS011;6702;47.068;15.458;2022-09-09T12:40:55;4.77;;;2.20;;
13267;SDS011;6702;47.068;15.458;2022-09-09T12:44:03;3.20;;;1.70;;
13267;SDS011;6702;47.068;15.458;2022-09-09T12:47:09;3.33;;;1.57;;
13267;SDS011;6702;47.068;15.458;2022-09-09T12:50:15;1.63;;;1.53;;
13267;SDS011;6702;47.068;15.458;2022-09-09T12:53:22;2.70;;;1.40;;
13267;SDS011;6702;47.068;15.458;2022-09-09T12:56:29;2.20;;;1.60;;
13267;SDS011;6702;47.068;15.458;2022-09-09T12:59:35;1.90;;;1.63;;
13267;SDS011;6702;47.068;15.458;2022-09-09T13:02:48;2.30;;;1.50;;
13267;SDS011;6702;47.068;15.458;2022-09-09T13:05:53;1.60;;;1.50;;
13267;SDS011;6702;47.068;15.458;2022-09-09T13:09:01;1.30;;;1.20;;
13267;SDS011;6702;47.068;15.458;2022-09-09T13:12:06;4.57;;;1.40;;
13267;SDS011;6702;47.068;15.458;2022-09-09T13:15:19;2.27;;;2.07;;
13267;SDS011;6702;47.068;15.458;2022-09-09T13:18:25;2.20;;;1.60;;
13267;SDS011;6702;47.068;15.458;2022-09-09T13:21:32;1.80;;;1.70;;
13267;SDS011;6702;47.068;15.458;2022-09-09T13:24:36;6.67;;;2.03;;
13267;SDS011;6702;47.068;15.458;2022-09-09T13:27:41;1.40;;;1.30;;
13267;SDS011;6702;47.068;15.458;2022-09-09T13:30:55;1.40;;;1.30;;
13267;SDS011;6702;47.068;15.458;2022-09-09T13:34:10;1.73;;;1.63;;
13267;SDS011;6702;47.068;15.458;2022-09-09T13:37:16;1.40;;;1.20;;
13267;SDS011;6702;47.068;15.458;2022-09-09T13:40:26;1.70;;;1.60;;
13267;SDS011;6702;47.068;15.458;2022-09-09T13:43:31;2.60;;;1.50;;
13267;SDS011;6702;47.068;15.458;2022-09-09T13:46:37;3.70;;;1.77;;
13267;SDS011;6702;47.068;15.458;2022-09-09T13:49:42;2.27;;;1.50;;
13267;SDS011;6702;47.068;15.458;2022-09-09T13:52:47;2.47;;;1.30;;
13267;SDS011;6702;47.068;15.458;2022-09-09T13:55:51;2.33;;;1.60;;
13267;SDS011;6702;47.068;15.458;2022-09-09T13:58:56;4.20;;;2.10;;
13267;SDS011;6702;47.068;15.458;2022-09-09T14:01:59;2.50;;;2.03;;
13267;SDS011;6702;47.068;15.458;2022-09-09T14:05:03;1.60;;;1.50;;
13267;SDS011;6702;47.068;15.458;2022-09-09T14:08:07;3.57;;;1.80;;
13267;SDS011;6702;47.068;15.458;2022-09-09T14:11:15;1.90;;;1.80;;
13267;SDS011;6702;47.068;15.458;2022-09-09T14:14:21;2.67;;;1.83;;
13267;SDS011;6702;47.068;15.458;2022-09-09T14:17:24;2.43;;;2.23;;
13267;SDS011;6702;47.068;15.458;2022-09-09T14:20:30;3.50;;;2.10;;
13267;SDS011;6702;47.068;15.458;2022-09-09T14:23:34;2.70;;;2.10;;
13267;SDS011;6702;47.068;15.458;2022-09-09T14:26:37;3.60;;;2.63;;
13267;SDS011;6702;47.068;15.458;2022-09-09T14:29:41;2.93;;;2.23;;
13267;SDS011;6702;47.068;15.458;2022-09-09T14:32:45;4.00;;;2.60;;
13267;SDS011;6702;47.068;15.458;2022-09-09T14:35:54;3.03;;;2.37;;
13267;SDS011;6702;47.068;15.458;2022-09-09T14:38:58;4.30;;;2.50;;
13267;SDS011;6702;47.068;15.458;2022-09-09T14:42:01;3.20;;;2.90;;
13267;SDS011;6702;47.068;15.458;2022-09-09T14:45:06;2.70;;;2.50;;
13267;SDS011;6702;47.068;15.458;2022-09-09T14:48:10;3.03;;;2.73;;
13267;SDS011;6702;47.068;15.458;2022-09-09T14:51:15;2.73;;;2.53;;
13267;SDS011;6702;47.068;15.458;2022-09-09T14:54:20;3.30;;;2.60;;
13267;SDS011;6702;47.068;15.458;2022-09-09T14:57:24;2.53;;;2.33;;
13267;SDS011;6702;47.068;15.458;2022-09-09T15:00:28;3.70;;;2.40;;
13267;SDS011;6702;47.068;15.458;2022-09-09T15:03:31;3.60;;;2.33;;
13267;SDS011;6702;47.068;15.458;2022-09-09T15:06:35;4.60;;;2.70;;
13267;SDS011;6702;47.068;15.458;2022-09-09T15:09:40;2.87;;;2.67;;
13267;SDS011;6702;47.068;15.458;2022-09-09T15:12:43;4.27;;;3.20;;
13267;SDS011;6702;47.068;15.458;2022-09-09T15:15:48;4.60;;;2.97;;
13267;SDS011;6702;47.068;15.458;2022-09-09T15:18:53;3.63;;;3.20;;
13267;SDS011;6702;47.068;15.458;2022-09-09T15:21:57;4.20;;;3.20;;
13267;SDS011;6702;47.068;15.458;2022-09-09T15:25:00;3.23;;;2.93;;
13267;SDS011;6702;47.068;15.458;2022-09-09T15:28:03;3.40;;;3.10;;
13267;SDS011;6702;47.068;15.458;2022-09-09T15:31:10;4.40;;;4.00;;
13267;SDS011;6702;47.068;15.458;2022-09-09T15:34:15;4.93;;;3.30;;
13267;SDS011;6702;47.068;15.458;2022-09-09T15:37:18;2.70;;;2.50;;
13267;SDS011;6702;47.068;15.458;2022-09-09T15:40:21;3.60;;;2.67;;
13267;SDS011;6702;47.068;15.458;2022-09-09T15:43:25;2.50;;;2.23;;
13267;SDS011;6702;47.068;15.458;2022-09-09T15:46:30;3.07;;;2.80;;
13267;SDS011;6702;47.068;15.458;2022-09-09T15:49:35;3.87;;;2.77;;
13267;SDS011;6702;47.068;15.458;2022-09-09T15:52:38;2.70;;;2.50;;
13267;SDS011;6702;47.068;15.458;2022-09-09T15:55:41;2.93;;;2.73;;
13267;SDS011;6702;47.068;15.458;2022-09-09T15:58:45;4.37;;;2.57;;
13267;SDS011;6702;47.068;15.458;2022-09-09T16:01:50;2.63;;;2.43;;
13267;SDS011;6702;47.068;15.458;2022-09-09T16:04:53;2.90;;;2.70;;
13267;SDS011;6702;47.068;15.458;2022-09-09T16:07:56;3.00;;;2.70;;
13267;SDS011;6702;47.068;15.458;2022-09-09T16:11:06;4.10;;;2.70;;
13267;SDS011;6702;47.068;15.458;2022-09-09T16:14:12;3.00;;;2.13;;
13267;SDS011;6702;47.068;15.458;2022-09-09T16:17:18;3.47;;;2.27;;
13267;SDS011;6702;47.068;15.458;2022-09-09T16:20:21;3.80;;;2.50;;
13267;SDS011;6702;47.068;15.458;2022-09-09T16:23:25;3.00;;;2.70;;
13267;SDS011;6702;47.068;15.458;2022-09-09T16:26:28;2.53;;;2.40;;
13267;SDS011;6702;47.068;15.458;2022-09-09T16:29:33;3.97;;;2.50;;
13267;SDS011;6702;47.068;15.458;2022-09-09T16:32:37;3.00;;;2.80;;
13267;SDS011;6702;47.068;15.458;2022-09-09T16:35:40;2.90;;;2.17;;
13267;SDS011;6702;47.068;15.458;2022-09-09T16:38:43;2.43;;;2.23;;
13267;SDS011;6702;47.068;15.458;2022-09-09T16:41:48;3.27;;;2.47;;
13267;SDS011;6702;47.068;15.458;2022-09-09T16:44:51;5.70;;;2.80;;
13267;SDS011;6702;47.068;15.458;2022-09-09T16:47:55;3.20;;;2.60;;
13267;SDS011;6702;47.068;15.458;2022-09-09T16:51:01;3.90;;;2.83;;
13267;SDS011;6702;47.068;15.458;2022-09-09T16:54:05;6.00;;;2.40;;
13267;SDS011;6702;47.068;15.458;2022-09-09T16:57:10;4.10;;;3.00;;
13267;SDS011;6702;47.068;15.458;2022-09-09T17:00:13;3.47;;;2.53;;
13267;SDS011;6702;47.068;15.458;2022-09-09T17:03:19;2.93;;;2.57;;
13267;SDS011;6702;47.068;15.458;2022-09-09T17:06:22;3.30;;;3.00;;
13267;SDS011;6702;47.068;15.458;2022-09-09T17:09:25;5.17;;;2.70;;
13267;SDS011;6702;47.068;15.458;2022-09-09T17:12:30;2.63;;;2.43;;
13267;SDS011;6702;47.068;15.458;2022-09-09T17:15:38;3.30;;;2.63;;
13267;SDS011;6702;47.068;15.458;2022-09-09T17:18:45;3.87;;;2.57;;
13267;SDS011;6702;47.068;15.458;2022-09-09T17:21:48;2.77;;;2.57;;
13267;SDS011;6702;47.068;15.458;2022-09-09T17:25:11;4.87;;;2.20;;
13267;SDS011;6702;47.068;15.458;2022-09-09T17:28:14;3.43;;;2.87;;
13267;SDS011;6702;47.068;15.458;2022-09-09T17:31:18;3.13;;;2.50;;
13267;SDS011;6702;47.068;15.458;2022-09-09T17:34:23;8.80;;;2.57;;
13267;SDS011;6702;47.068;15.458;2022-09-09T17:37:26;3.20;;;2.90;;
13267;SDS011;6702;47.068;15.458;2022-09-09T17:40:29;2.83;;;2.63;;
13267;SDS011;6702;47.068;15.458;2022-09-09T17:43:32;4.43;;;3.07;;
13267;SDS011;6702;47.068;15.458;2022-09-09T17:46:37;4.07;;;3.10;;
13267;SDS011;6702;47.068;15.458;2022-09-09T17:49:43;3.03;;;2.43;;
13267;SDS011;6702;47.068;15.458;2022-09-09T17:52:47;2.87;;;2.60;;
13267;SDS011;6702;47.068;15.458;2022-09-09T17:55:50;4.77;;;2.90;;
13267;SDS011;6702;47.068;15.458;2022-09-09T17:58:54;3.60;;;2.60;;
13267;SDS011;6702;47.068;15.458;2022-09-09T18:01:57;3.00;;;2.70;;
13267;SDS011;6702;47.068;15.458;2022-09-09T18:05:02;2.97;;;2.77;;
13267;SDS011;6702;47.068;15.458;2022-09-09T18:08:05;2.40;;;2.20;;
13267;SDS011;6702;47.068;15.458;2022-09-09T18:11:08;2.83;;;2.63;;
13267;SDS011;6702;47.068;15.458;2022-09-09T18:14:12;3.13;;;2.87;;
13267;SDS011;6702;47.068;15.458;2022-09-09T18:17:18;3.20;;;2.70;;
13267;SDS011;6702;47.068;15.458;2022-09-09T18:20:22;4.10;;;2.80;;
13267;SDS011;6702;47.068;15.458;2022-09-09T18:23:25;3.87;;;2.50;;
13267;SDS011;6702;47.068;15.458;2022-09-09T18:26:29;3.17;;;2.60;;
13267;SDS011;6702;47.068;15.458;2022-09-09T18:29:33;2.60;;;2.40;;
13267;SDS011;6702;47.068;15.458;2022-09-09T18:32:37;6.20;;;2.30;;
13267;SDS011;6702;47.068;15.458;2022-09-09T18:35:41;2.67;;;2.37;;
13267;SDS011;6702;47.068;15.458;2022-09-09T18:38:47;4.77;;;2.60;;
13267;SDS011;6702;47.068;15.458;2022-09-09T18:41:51;3.27;;;2.50;;
13267;SDS011;6702;47.068;15.458;2022-09-09T18:44:55;3.63;;;2.80;;
13267;SDS011;6702;47.068;15.458;2022-09-09T18:47:59;3.50;;;3.20;;
13267;SDS011;6702;47.068;15.458;2022-09-09T18:51:05;3.67;;;2.67;;
13267;SDS011;6702;47.068;15.458;2022-09-09T18:54:10;5.47;;;2.70;;
13267;SDS011;6702;47.068;15.458;2022-09-09T18:57:15;3.43;;;2.73;;